createdAt,value
2023-11-29T00:03:17.321Z,25.80
2023-11-29T00:08:21.158Z,27.30
2023-11-29T00:13:23.373Z,25.20
2023-11-29T00:18:25.653Z,24.80
2023-11-29T00:23:27.785Z,27.00
2023-11-29T00:28:34.482Z,26.30
2023-11-29T00:33:36.566Z,28.10
2023-11-29T00:38:38.699Z,26.10
2023-11-29T00:43:40.743Z,27.50
2023-11-29T00:48:42.836Z,26.60
2023-11-29T00:53:45.282Z,28.80
2023-11-29T00:58:47.372Z,27.80
2023-11-29T01:03:49.571Z,27.30
2023-11-29T01:08:52.483Z,28.10
2023-11-29T01:13:54.792Z,27.70
2023-11-29T01:18:58.954Z,26.50
2023-11-29T01:24:01.386Z,27.20
2023-11-29T01:29:03.533Z,28.10
2023-11-29T01:34:05.770Z,28.00
2023-11-29T01:39:08.225Z,26.70
2023-11-29T01:44:10.623Z,28.30
2023-11-29T01:49:13.743Z,26.90
2023-11-29T01:54:17.508Z,26.10
2023-11-29T01:59:19.770Z,25.70
2023-11-29T02:04:22.077Z,24.70
2023-11-29T02:09:25.061Z,24.70
2023-11-29T02:14:27.216Z,24.90
2023-11-29T02:19:29.387Z,24.30
2023-11-29T02:24:40.794Z,24.00
2023-11-29T02:29:44.109Z,22.70
2023-11-29T02:34:46.152Z,23.30
2023-11-29T02:39:48.212Z,21.80
2023-11-29T02:44:50.802Z,23.10
2023-11-29T02:49:52.919Z,23.10
2023-11-29T02:54:55.046Z,23.60
2023-11-29T02:59:57.231Z,24.70
2023-11-29T03:04:59.349Z,21.90
2023-11-29T03:10:01.389Z,21.30
2023-11-29T03:15:03.685Z,21.10
2023-11-29T03:20:09.075Z,19.40
2023-11-29T03:25:11.189Z,17.70
2023-11-29T03:30:14.038Z,18.40
2023-11-29T03:35:16.265Z,19.40
2023-11-29T03:40:18.389Z,17.00
2023-11-29T03:45:20.574Z,20.00
2023-11-29T03:50:23.563Z,17.90
2023-11-29T03:55:25.785Z,19.00
2023-11-29T04:00:27.852Z,18.30
2023-11-29T04:05:30.128Z,17.40
2023-11-29T04:10:35.344Z,17.30
2023-11-29T04:15:37.920Z,16.20
2023-11-29T04:20:40.253Z,17.30
2023-11-29T04:25:42.503Z,16.50
2023-11-29T04:30:44.927Z,17.40
2023-11-29T04:35:47.172Z,15.70
2023-11-29T04:40:49.409Z,16.20
2023-11-29T04:45:51.754Z,16.60
2023-11-29T04:50:53.850Z,16.30
2023-11-29T04:55:57.067Z,16.80
2023-11-29T05:00:59.108Z,14.60
2023-11-29T05:06:01.189Z,15.30
2023-11-29T05:11:08.339Z,15.10
2023-11-29T05:16:10.606Z,15.00
2023-11-29T05:21:12.745Z,17.30
2023-11-29T05:26:15.637Z,14.70
2023-11-29T05:31:19.645Z,16.50
2023-11-29T05:36:22.792Z,15.60
2023-11-29T05:41:24.992Z,16.20
2023-11-29T05:46:29.778Z,13.80
2023-11-29T05:51:31.968Z,16.00
2023-11-29T05:56:34.027Z,15.50
2023-11-29T06:01:38.287Z,16.90
2023-11-29T06:06:40.428Z,14.10
2023-11-29T06:11:42.872Z,15.80
2023-11-29T06:16:45.050Z,16.60
2023-11-29T06:21:47.661Z,17.30
2023-11-29T06:26:50.651Z,16.30
2023-11-29T06:31:52.873Z,17.30
2023-11-29T06:36:55.165Z,15.60
2023-11-29T06:41:57.211Z,15.30
2023-11-29T06:47:00.400Z,15.00
2023-11-29T06:52:04.835Z,16.40
2023-11-29T06:57:07.082Z,14.60
2023-11-29T07:02:09.278Z,15.80
2023-11-29T07:07:12.522Z,13.30
2023-11-29T07:12:14.713Z,13.30
2023-11-29T07:17:16.964Z,13.90
2023-11-29T07:22:19.601Z,15.30
2023-11-29T07:27:21.837Z,14.70
2023-11-29T07:32:25.995Z,18.00
2023-11-29T07:37:28.901Z,22.90
2023-11-29T07:43:01.895Z,20.50
2023-11-29T07:48:34.239Z,19.60
2023-11-29T07:53:36.663Z,17.10
2023-11-29T07:58:39.465Z,17.50
2023-11-29T08:03:42.002Z,19.60
2023-11-29T08:08:44.230Z,18.90
2023-11-29T08:13:46.408Z,21.90
2023-11-29T08:18:48.542Z,20.30
2023-11-29T08:23:50.793Z,18.20
2023-11-29T08:28:52.967Z,24.90
2023-11-29T08:33:55.124Z,18.00
2023-11-29T08:38:57.820Z,16.20
2023-11-29T08:44:00.010Z,15.90
2023-11-29T08:49:02.178Z,15.50
2023-11-29T08:54:05.174Z,13.50
2023-11-29T08:59:07.382Z,14.00
2023-11-29T09:04:09.467Z,17.00
2023-11-29T09:09:13.687Z,18.00
2023-11-29T09:14:15.788Z,19.10
2023-11-29T09:19:18.018Z,18.40
2023-11-29T09:24:20.125Z,18.90
2023-11-29T09:29:27.414Z,16.10
2023-11-29T09:34:29.808Z,15.80
2023-11-29T09:39:32.014Z,17.90
2023-11-29T09:44:37.878Z,17.10
2023-11-29T09:49:40.451Z,17.50
2023-11-29T09:54:44.318Z,15.80
2023-11-29T09:59:46.450Z,16.70
2023-11-29T10:04:48.861Z,16.10
2023-11-29T10:09:51.098Z,13.00
2023-11-29T10:15:01.490Z,17.90
2023-11-29T10:20:09.228Z,17.70
2023-11-29T10:25:19.018Z,15.20
2023-11-29T10:30:21.391Z,14.50
2023-11-29T10:35:26.396Z,14.00
2023-11-29T10:40:29.453Z,13.50
2023-11-29T10:45:36.325Z,15.10
2023-11-29T10:50:40.424Z,14.30
2023-11-29T10:55:45.392Z,16.00
2023-11-29T11:00:47.779Z,16.40
2023-11-29T11:05:50.102Z,15.90
2023-11-29T11:10:52.578Z,14.90
2023-11-29T11:15:57.240Z,15.10
2023-11-29T11:21:01.388Z,14.60
2023-11-29T11:26:11.258Z,16.90
2023-11-29T11:31:13.833Z,15.40
2023-11-29T11:36:18.217Z,16.60
2023-11-29T11:41:20.624Z,16.40
2023-11-29T11:46:22.993Z,17.40
2023-11-29T11:51:25.158Z,17.10
2023-11-29T11:56:28.544Z,16.10
2023-11-29T12:01:32.006Z,18.10
2023-11-29T12:06:34.561Z,17.00
2023-11-29T12:11:38.448Z,18.80
2023-11-29T12:16:40.706Z,20.40
2023-11-29T12:21:44.444Z,19.20
2023-11-29T12:26:48.227Z,18.50
2023-11-29T12:31:53.402Z,19.00
2023-11-29T12:36:58.860Z,18.90
2023-11-29T12:42:04.746Z,17.80
2023-11-29T12:47:07.354Z,16.80
2023-11-29T12:52:09.486Z,15.40
2023-11-29T12:57:12.407Z,15.60
2023-11-29T13:02:14.733Z,15.80
2023-11-29T13:07:16.998Z,14.00
2023-11-29T13:12:19.512Z,15.00
2023-11-29T13:17:24.470Z,14.00
2023-11-29T13:22:26.945Z,13.50
2023-11-29T13:27:29.529Z,13.60
2023-11-29T13:32:32.352Z,13.50
2023-11-29T13:37:34.730Z,13.40
2023-11-29T13:42:36.994Z,13.00
2023-11-29T13:47:40.856Z,12.70
2023-11-29T13:52:43.752Z,13.20
2023-11-29T13:57:46.585Z,14.00
2023-11-29T14:02:49.308Z,13.00
2023-11-29T14:07:52.822Z,14.00
2023-11-29T14:12:56.459Z,14.40
2023-11-29T14:17:59.129Z,14.30
2023-11-29T14:23:01.395Z,13.60
2023-11-29T14:28:06.684Z,11.90
2023-11-29T14:33:14.642Z,12.80
2023-11-29T14:38:16.860Z,14.30
2023-11-29T14:43:19.204Z,12.20
2023-11-29T14:48:22.615Z,11.70
2023-11-29T14:53:24.848Z,12.10
2023-11-29T14:58:27.189Z,16.10
2023-11-29T15:03:29.994Z,13.10
2023-11-29T15:08:32.392Z,13.10
2023-11-29T15:13:39.050Z,13.80
2023-11-29T15:18:44.317Z,12.60
2023-11-29T15:23:46.724Z,11.90
2023-11-29T15:28:49.463Z,14.30
2023-11-29T15:33:51.746Z,17.10
2023-11-29T15:38:54.208Z,17.00
2023-11-29T15:43:56.318Z,19.20
2023-11-29T15:48:58.718Z,17.60
2023-11-29T15:54:00.886Z,19.30
2023-11-29T15:59:03.150Z,21.70
2023-11-29T16:04:05.845Z,22.60
2023-11-29T16:09:09.207Z,22.20
2023-11-29T16:14:11.495Z,21.20
2023-11-29T16:19:13.584Z,22.40
2023-11-29T16:24:15.834Z,22.10
2023-11-29T16:29:17.988Z,24.10
2023-11-29T16:34:20.369Z,19.90
2023-11-29T16:39:22.577Z,21.00
2023-11-29T16:44:24.794Z,19.90
2023-11-29T16:49:27.063Z,21.80
2023-11-29T16:54:29.301Z,25.50
2023-11-29T16:59:31.615Z,25.10
2023-11-29T17:04:33.787Z,21.80
2023-11-29T17:09:36.172Z,23.80
2023-11-29T17:14:38.426Z,25.50
2023-11-29T17:19:40.554Z,25.40
2023-11-29T17:24:43.304Z,26.60
2023-11-29T17:29:45.623Z,26.30
2023-11-29T17:34:48.471Z,27.90
2023-11-29T17:39:50.639Z,24.80
2023-11-29T17:44:53.146Z,18.60
2023-11-29T17:49:56.301Z,22.10
2023-11-29T17:54:58.508Z,21.90
2023-11-29T18:00:01.501Z,18.50
2023-11-29T18:05:03.782Z,17.90
2023-11-29T18:10:06.263Z,20.70
2023-11-29T18:15:08.970Z,20.90
2023-11-29T18:20:12.221Z,19.10
2023-11-29T18:25:14.531Z,18.40
2023-11-29T18:30:17.106Z,20.00
2023-11-29T18:35:19.360Z,23.00
2023-11-29T18:40:21.524Z,19.40
2023-11-29T18:45:23.590Z,18.10
2023-11-29T18:50:25.657Z,17.70
2023-11-29T18:55:30.532Z,15.20
2023-11-29T19:00:32.736Z,16.00
2023-11-29T19:05:35.479Z,16.60
2023-11-29T19:10:37.572Z,17.20
2023-11-29T19:15:39.783Z,16.80
2023-11-29T19:20:42.048Z,17.40
2023-11-29T19:25:44.749Z,16.30
2023-11-29T19:30:47.086Z,17.40
2023-11-29T19:35:49.404Z,15.90
2023-11-29T19:40:51.679Z,16.90
2023-11-29T19:45:56.060Z,17.40
2023-11-29T19:50:58.200Z,16.60
2023-11-29T19:56:00.253Z,16.20
2023-11-29T20:01:02.545Z,17.80
2023-11-29T20:06:05.081Z,19.20
2023-11-29T20:11:08.584Z,19.00
2023-11-29T20:16:11.657Z,20.50
2023-11-29T20:21:14.207Z,21.00
2023-11-29T20:26:16.236Z,21.70
2023-11-29T20:31:24.839Z,19.60
2023-11-29T20:36:27.198Z,20.30
2023-11-29T20:41:32.111Z,18.80
2023-11-29T20:46:34.104Z,15.20
2023-11-29T20:51:36.179Z,16.30
2023-11-29T20:56:38.104Z,15.90
2023-11-29T21:01:40.825Z,15.80
2023-11-29T21:06:42.818Z,15.20
2023-11-29T21:11:44.795Z,13.30
2023-11-29T21:16:47.225Z,13.30
2023-11-29T21:21:49.184Z,14.90
2023-11-29T21:26:51.238Z,12.80
2023-11-29T21:31:54.372Z,11.80
2023-11-29T21:36:56.542Z,14.20
2023-11-29T21:41:58.800Z,13.90
2023-11-29T21:47:01.371Z,14.40
2023-11-29T21:52:03.551Z,15.10
2023-11-29T21:57:05.532Z,14.50
2023-11-29T22:02:08.223Z,15.50
2023-11-29T22:07:14.671Z,14.40
2023-11-29T22:12:16.799Z,14.10
2023-11-29T22:17:18.969Z,13.50
2023-11-29T22:22:20.922Z,12.50
2023-11-29T22:27:22.932Z,13.30
2023-11-29T22:32:25.525Z,12.70
2023-11-29T22:37:29.078Z,12.10
2023-11-29T22:42:31.097Z,12.40
2023-11-29T22:47:33.139Z,11.60
2023-11-29T22:52:35.111Z,12.50
2023-11-29T22:57:37.217Z,12.30
2023-11-29T23:02:39.379Z,11.90
2023-11-29T23:07:41.483Z,13.20
2023-11-29T23:12:44.585Z,13.80
2023-11-29T23:17:46.642Z,13.70
2023-11-29T23:22:49.494Z,13.80
2023-11-29T23:27:52.010Z,12.00
2023-11-29T23:32:54.535Z,13.30
2023-11-29T23:37:56.717Z,11.90
2023-11-29T23:42:59.048Z,12.20
2023-11-29T23:48:02.542Z,12.10
2023-11-29T23:53:04.843Z,11.90
2023-11-29T23:58:06.980Z,9.50
